createdAt,value
2023-05-06T00:00:26.925Z,99.90
2023-05-06T00:03:13.633Z,99.90
2023-05-06T00:06:00.946Z,99.90
2023-05-06T00:08:47.332Z,99.90
2023-05-06T00:11:35.260Z,99.90
2023-05-06T00:14:21.880Z,99.90
2023-05-06T00:17:08.442Z,99.90
2023-05-06T00:19:56.139Z,99.90
2023-05-06T00:22:42.825Z,99.90
2023-05-06T00:25:29.129Z,99.90
2023-05-06T00:28:16.922Z,99.90
2023-05-06T00:31:03.738Z,99.90
2023-05-06T00:33:50.176Z,99.90
2023-05-06T00:36:36.569Z,99.90
2023-05-06T00:39:23.002Z,99.90
2023-05-06T00:42:09.361Z,99.90
2023-05-06T00:44:57.079Z,99.90
2023-05-06T00:47:44.837Z,99.90
2023-05-06T00:50:33.274Z,99.90
2023-05-06T00:53:21.950Z,99.90
2023-05-06T00:56:09.295Z,99.90
2023-05-06T00:58:56.158Z,99.90
2023-05-06T01:01:44.495Z,99.90
2023-05-06T01:04:31.243Z,99.90
2023-05-06T01:07:25.665Z,99.90
2023-05-06T01:10:20.065Z,99.90
2023-05-06T01:13:13.274Z,99.90
2023-05-06T01:16:02.142Z,99.90
2023-05-06T01:18:51.050Z,99.90
2023-05-06T01:21:41.605Z,99.90
2023-05-06T01:24:40.932Z,99.90
2023-05-06T01:27:27.617Z,99.90
2023-05-06T01:30:15.596Z,99.90
2023-05-06T01:33:09.083Z,99.90
2023-05-06T01:36:04.298Z,99.90
2023-05-06T01:38:56.135Z,99.90
2023-05-06T01:41:45.844Z,99.90
2023-05-06T01:44:35.268Z,99.90
2023-05-06T01:47:21.919Z,99.90
2023-05-06T01:50:09.160Z,99.90
2023-05-06T01:53:03.379Z,99.90
2023-05-06T01:55:49.939Z,99.90
2023-05-06T01:58:38.396Z,99.90
2023-05-06T02:01:25.002Z,99.90
2023-05-06T02:04:11.869Z,99.90
2023-05-06T02:06:58.455Z,99.90
2023-05-06T02:09:45.164Z,99.90
2023-05-06T02:12:31.648Z,99.90
2023-05-06T02:15:19.571Z,99.90
2023-05-06T02:18:06.219Z,99.90
2023-05-06T02:20:53.028Z,99.90
2023-05-06T02:23:39.386Z,99.90
2023-05-06T02:26:25.801Z,99.90
2023-05-06T02:29:12.257Z,99.90
2023-05-06T02:31:59.984Z,99.90
2023-05-06T02:34:46.615Z,99.90
2023-05-06T02:37:33.069Z,99.90
2023-05-06T02:40:19.484Z,99.90
2023-05-06T02:43:06.189Z,99.90
2023-05-06T02:45:52.619Z,99.90
2023-05-06T02:48:40.846Z,99.90
2023-05-06T02:51:27.582Z,99.90
2023-05-06T02:54:14.005Z,99.90
2023-05-06T02:57:01.206Z,99.90
2023-05-06T02:59:47.925Z,99.90
2023-05-06T03:02:34.269Z,99.90
2023-05-06T03:05:22.236Z,99.90
2023-05-06T03:08:08.839Z,99.90
2023-05-06T03:10:55.374Z,99.90
2023-05-06T03:13:41.647Z,99.90
2023-05-06T03:16:28.275Z,99.90
2023-05-06T03:19:15.010Z,99.90
2023-05-06T03:22:02.961Z,99.90
2023-05-06T03:24:49.416Z,99.90
2023-05-06T03:27:36.222Z,99.90
2023-05-06T03:30:22.841Z,99.90
2023-05-06T03:33:09.206Z,99.90
2023-05-06T03:35:55.649Z,99.90
2023-05-06T03:38:43.462Z,99.90
2023-05-06T03:41:30.981Z,99.90
2023-05-06T03:44:17.746Z,99.90
2023-05-06T03:47:04.136Z,99.90
2023-05-06T03:49:50.481Z,99.90
2023-05-06T03:52:37.138Z,99.90
2023-05-06T03:55:24.982Z,99.90
2023-05-06T03:58:12.015Z,99.90
2023-05-06T04:01:00.830Z,99.90
2023-05-06T04:03:47.571Z,99.90
2023-05-06T04:06:34.529Z,99.90
2023-05-06T04:09:21.016Z,99.90
2023-05-06T04:12:09.103Z,99.90
2023-05-06T04:14:55.742Z,99.90
2023-05-06T04:17:42.166Z,99.90
2023-05-06T04:20:29.147Z,99.90
2023-05-06T04:23:16.102Z,99.90
2023-05-06T04:26:02.607Z,99.90
2023-05-06T04:28:50.540Z,99.90
2023-05-06T04:31:37.545Z,99.90
2023-05-06T04:34:25.224Z,99.90
2023-05-06T04:37:11.669Z,99.90
2023-05-06T04:39:58.686Z,99.90
2023-05-06T04:42:45.055Z,99.90
2023-05-06T04:45:34.553Z,99.90
2023-05-06T04:48:22.810Z,99.90
2023-05-06T04:51:09.435Z,99.90
2023-05-06T04:53:55.781Z,99.90
2023-05-06T04:56:42.204Z,99.90
2023-05-06T04:59:28.644Z,99.90
2023-05-06T05:02:16.408Z,99.90
2023-05-06T05:05:03.009Z,99.90
2023-05-06T05:07:49.354Z,99.90
2023-05-06T05:10:35.610Z,99.90
2023-05-06T05:13:22.062Z,99.90
2023-05-06T05:16:09.052Z,99.90
2023-05-06T05:18:57.379Z,99.90
2023-05-06T05:21:43.837Z,99.90
2023-05-06T05:24:30.404Z,99.90
2023-05-06T05:27:16.865Z,99.90
2023-05-06T05:30:03.741Z,99.90
2023-05-06T05:32:50.818Z,99.90
2023-05-06T05:35:39.078Z,99.90
2023-05-06T05:38:25.740Z,99.90
2023-05-06T05:41:12.012Z,99.90
2023-05-06T05:43:58.387Z,99.90
2023-05-06T05:46:44.830Z,99.90
2023-05-06T05:49:31.798Z,99.90
2023-05-06T05:52:19.722Z,99.90
2023-05-06T05:55:06.928Z,99.90
2023-05-06T05:57:53.433Z,99.90
2023-05-06T06:00:39.956Z,99.90
2023-05-06T06:03:26.440Z,99.90
2023-05-06T06:06:13.222Z,99.90
2023-05-06T06:09:01.450Z,99.90
2023-05-06T06:11:47.761Z,99.90
2023-05-06T06:14:34.128Z,99.90
2023-05-06T06:17:20.707Z,99.90
2023-05-06T06:20:08.475Z,99.90
2023-05-06T06:22:54.854Z,99.90
2023-05-06T06:25:42.690Z,99.90
2023-05-06T06:28:29.606Z,99.90
2023-05-06T06:31:16.114Z,99.90
2023-05-06T06:34:05.345Z,99.90
2023-05-06T06:36:52.056Z,99.90
2023-05-06T06:39:38.468Z,99.90
2023-05-06T06:42:27.257Z,99.90
2023-05-06T06:45:15.278Z,99.90
2023-05-06T06:48:02.011Z,99.90
2023-05-06T06:50:48.380Z,99.90
2023-05-06T06:53:35.123Z,99.90
2023-05-06T06:56:21.955Z,99.90
2023-05-06T06:59:10.440Z,99.90
2023-05-06T07:01:57.113Z,99.90
2023-05-06T07:04:43.567Z,99.90
2023-05-06T07:07:30.282Z,99.90
2023-05-06T07:10:16.852Z,99.90
2023-05-06T07:13:03.407Z,99.90
2023-05-06T07:15:51.361Z,99.90
2023-05-06T07:18:38.190Z,99.90
2023-05-06T07:21:24.680Z,99.90
2023-05-06T07:24:10.936Z,99.90
2023-05-06T07:26:57.818Z,99.90
2023-05-06T07:29:44.708Z,99.90
2023-05-06T07:32:32.563Z,99.90
2023-05-06T07:35:19.246Z,99.90
2023-05-06T07:38:06.059Z,99.90
2023-05-06T07:40:53.039Z,99.90
2023-05-06T07:43:39.718Z,99.90
2023-05-06T07:46:26.531Z,99.90
2023-05-06T07:49:14.503Z,99.90
2023-05-06T07:52:01.216Z,99.90
2023-05-06T07:54:47.621Z,99.90
2023-05-06T07:57:34.014Z,99.90
2023-05-06T08:00:20.592Z,99.90
2023-05-06T08:03:07.097Z,99.90
2023-05-06T08:05:55.910Z,99.90
2023-05-06T08:08:42.558Z,99.90
2023-05-06T08:11:29.122Z,99.90
2023-05-06T08:14:15.526Z,99.90
2023-05-06T08:17:02.403Z,99.90
2023-05-06T08:19:49.041Z,99.90
2023-05-06T08:22:37.007Z,99.90
2023-05-06T08:25:23.820Z,99.90
2023-05-06T08:28:10.271Z,99.90
2023-05-06T08:30:56.844Z,99.90
2023-05-06T08:33:43.189Z,99.90
2023-05-06T08:36:29.760Z,99.90
2023-05-06T08:39:18.300Z,99.90
2023-05-06T08:42:05.575Z,99.90
2023-05-06T08:44:52.966Z,99.90
2023-05-06T08:47:39.686Z,99.90
2023-05-06T08:50:27.132Z,99.90
2023-05-06T08:53:14.571Z,99.90
2023-05-06T08:56:04.810Z,99.90
2023-05-06T08:58:52.750Z,99.90
2023-05-06T09:01:39.794Z,99.90
2023-05-06T09:04:26.993Z,99.90
2023-05-06T09:07:13.769Z,99.90
2023-05-06T09:10:00.685Z,99.90
2023-05-06T09:12:48.643Z,99.90
2023-05-06T09:15:41.850Z,99.90
2023-05-06T09:18:28.384Z,99.90
2023-05-06T09:21:14.803Z,99.90
2023-05-06T09:24:02.340Z,99.90
2023-05-06T09:26:48.860Z,99.90
2023-05-06T09:29:36.894Z,99.90
2023-05-06T09:32:23.441Z,99.90
2023-05-06T09:35:11.771Z,99.90
2023-05-06T09:37:58.769Z,99.90
2023-05-06T09:40:45.243Z,99.90
2023-05-06T09:43:32.060Z,99.90
2023-05-06T09:46:20.497Z,99.90
2023-05-06T09:49:07.675Z,99.90
2023-05-06T09:51:54.238Z,99.90
2023-05-06T09:54:41.631Z,99.90
2023-05-06T09:57:31.040Z,99.90
2023-05-06T10:00:18.231Z,99.90
2023-05-06T10:03:07.183Z,99.90
2023-05-06T10:05:54.458Z,99.90
2023-05-06T10:08:42.917Z,99.90
2023-05-06T10:11:31.679Z,99.90
2023-05-06T10:14:18.613Z,99.90
2023-05-06T10:17:08.649Z,99.90
2023-05-06T10:19:59.173Z,99.90
2023-05-06T10:22:58.126Z,99.90
2023-05-06T10:25:47.894Z,99.90
2023-05-06T10:28:39.259Z,99.90
2023-05-06T10:31:27.268Z,99.90
2023-05-06T10:34:13.865Z,99.90
2023-05-06T10:37:02.004Z,99.90
2023-05-06T10:39:49.214Z,99.90
2023-05-06T10:42:36.275Z,99.90
2023-05-06T10:45:23.007Z,99.90
2023-05-06T10:48:10.674Z,99.90
2023-05-06T10:51:24.974Z,99.90
2023-05-06T10:54:23.077Z,99.90
2023-05-06T10:57:11.426Z,99.90
2023-05-06T10:59:58.448Z,99.90
2023-05-06T11:02:47.482Z,99.90
2023-05-06T11:05:47.527Z,99.90
2023-05-06T11:08:35.763Z,99.90
2023-05-06T11:11:49.509Z,99.90
2023-05-06T11:14:37.198Z,99.90
2023-05-06T11:17:34.908Z,99.90
2023-05-06T11:20:23.827Z,99.90
2023-05-06T11:23:11.120Z,99.90
2023-05-06T11:26:00.712Z,99.90
2023-05-06T11:28:49.909Z,99.90
2023-05-06T11:31:42.112Z,99.90
2023-05-06T11:34:30.037Z,99.90
2023-05-06T11:37:25.869Z,99.90
2023-05-06T11:40:16.555Z,99.90
2023-05-06T11:43:13.619Z,99.90
2023-05-06T11:46:01.913Z,99.90
2023-05-06T11:48:48.732Z,99.90
2023-05-06T11:51:35.376Z,99.90
2023-05-06T11:54:23.006Z,99.90
2023-05-06T11:57:11.695Z,99.90
2023-05-06T11:59:58.401Z,99.90
2023-05-06T12:02:46.433Z,99.90
2023-05-06T12:05:33.987Z,99.90
2023-05-06T12:08:27.857Z,99.90
2023-05-06T12:11:15.045Z,99.90
2023-05-06T12:14:02.493Z,99.90
2023-05-06T12:16:49.519Z,99.90
2023-05-06T12:19:39.625Z,99.90
2023-05-06T12:22:26.141Z,99.90
2023-05-06T12:25:17.226Z,99.90
2023-05-06T12:28:15.283Z,99.90
2023-05-06T12:31:02.713Z,99.90
2023-05-06T12:33:50.630Z,99.90
2023-05-06T12:36:43.412Z,99.90
2023-05-06T12:39:35.661Z,99.90
2023-05-06T12:42:23.234Z,99.90
2023-05-06T12:45:16.393Z,99.90
2023-05-06T12:48:05.396Z,99.90
2023-05-06T12:50:52.194Z,99.90
2023-05-06T12:53:40.484Z,99.90
2023-05-06T12:56:26.901Z,99.90
2023-05-06T12:59:13.773Z,99.90
2023-05-06T13:02:00.701Z,99.90
2023-05-06T13:04:47.208Z,99.90
2023-05-06T13:07:34.023Z,99.90
2023-05-06T13:10:21.836Z,99.90
2023-05-06T13:13:08.549Z,99.90
2023-05-06T13:15:55.783Z,99.90
2023-05-06T13:18:42.400Z,99.90
2023-05-06T13:21:28.708Z,99.90
2023-05-06T13:24:15.217Z,99.90
2023-05-06T13:27:03.492Z,99.90
2023-05-06T13:29:50.140Z,99.90
2023-05-06T13:32:36.616Z,99.90
2023-05-06T13:35:23.738Z,99.90
2023-05-06T13:38:10.162Z,99.90
2023-05-06T13:40:56.633Z,99.90
2023-05-06T13:43:44.698Z,99.90
2023-05-06T13:46:31.410Z,99.90
2023-05-06T13:49:20.301Z,99.90
2023-05-06T13:52:08.415Z,99.90
2023-05-06T13:54:56.756Z,99.90
2023-05-06T13:57:43.213Z,99.90
2023-05-06T14:00:31.032Z,99.90
2023-05-06T14:03:17.492Z,99.90
2023-05-06T14:06:04.058Z,99.90
2023-05-06T14:08:50.348Z,99.90
2023-05-06T14:11:36.910Z,99.90
2023-05-06T14:14:23.607Z,99.90
2023-05-06T14:17:11.734Z,99.90
2023-05-06T14:19:58.508Z,99.90
2023-05-06T14:22:45.648Z,99.90
2023-05-06T14:25:32.809Z,99.90
2023-05-06T14:28:19.483Z,99.90
2023-05-06T14:31:06.058Z,99.90
2023-05-06T14:33:53.789Z,99.90
2023-05-06T14:36:40.132Z,99.90
2023-05-06T14:39:26.639Z,99.90
2023-05-06T14:42:13.114Z,99.90
2023-05-06T14:44:59.450Z,99.90
2023-05-06T14:47:46.175Z,99.90
2023-05-06T14:50:34.518Z,99.90
2023-05-06T14:53:21.164Z,99.90
2023-05-06T14:56:10.354Z,99.90
2023-05-06T14:58:57.258Z,99.90
2023-05-06T15:01:43.617Z,99.90
2023-05-06T15:04:30.735Z,99.90
2023-05-06T15:07:18.890Z,99.90
2023-05-06T15:10:06.112Z,99.90
2023-05-06T15:12:52.749Z,99.90
2023-05-06T15:15:39.555Z,99.90
2023-05-06T15:18:26.088Z,99.90
2023-05-06T15:21:13.415Z,99.90
2023-05-06T15:24:01.674Z,99.90
2023-05-06T15:26:48.551Z,99.30
2023-05-06T15:29:34.994Z,99.60
2023-05-06T15:32:21.595Z,99.90
2023-05-06T15:35:08.809Z,99.90
2023-05-06T15:37:58.718Z,99.70
2023-05-06T15:40:51.096Z,99.90
2023-05-06T15:43:38.751Z,99.90
2023-05-06T15:46:25.775Z,98.30
2023-05-06T15:49:46.647Z,98.60
2023-05-06T15:52:18.915Z,98.50
2023-05-06T15:55:06.039Z,98.90
2023-05-06T15:57:54.801Z,99.30
2023-05-06T16:00:41.885Z,98.80
2023-05-06T16:03:28.486Z,99.70
2023-05-06T16:06:16.781Z,99.30
2023-05-06T16:09:03.260Z,99.70
2023-05-06T16:11:49.797Z,98.90
2023-05-06T16:14:37.604Z,99.20
2023-05-06T16:17:24.322Z,99.50
2023-05-06T16:20:12.788Z,99.60
2023-05-06T16:22:59.995Z,99.40
2023-05-06T16:25:46.463Z,99.40
2023-05-06T16:28:33.041Z,98.70
2023-05-06T16:31:21.216Z,99.10
2023-05-06T16:34:07.802Z,99.40
2023-05-06T16:36:54.426Z,98.00
2023-05-06T16:39:40.895Z,98.20
2023-05-06T16:42:27.263Z,98.30
2023-05-06T16:45:13.901Z,98.20
2023-05-06T16:48:01.982Z,97.60
2023-05-06T16:50:48.550Z,98.90
2023-05-06T16:53:35.070Z,98.70
2023-05-06T16:56:22.711Z,98.60
2023-05-06T16:59:09.465Z,98.60
2023-05-06T17:01:55.752Z,99.40
2023-05-06T17:04:43.562Z,98.60
2023-05-06T17:07:31.298Z,98.60
2023-05-06T17:10:17.973Z,97.90
2023-05-06T17:13:05.200Z,98.80
2023-05-06T17:15:51.511Z,99.80
2023-05-06T17:18:37.774Z,99.90
2023-05-06T17:21:25.758Z,99.90
2023-05-06T17:24:12.428Z,99.90
2023-05-06T17:26:59.438Z,99.90
2023-05-06T17:29:46.767Z,99.90
2023-05-06T17:32:33.360Z,99.90
2023-05-06T17:35:20.265Z,99.90
2023-05-06T17:38:08.199Z,99.90
2023-05-06T17:40:54.902Z,99.90
2023-05-06T17:43:41.466Z,99.90
2023-05-06T17:46:28.430Z,99.90
2023-05-06T17:49:15.068Z,99.90
2023-05-06T17:52:01.804Z,99.90
2023-05-06T17:55:23.376Z,99.90
2023-05-06T17:57:57.787Z,99.90
2023-05-06T18:00:44.309Z,99.90
2023-05-06T18:03:30.922Z,99.90
2023-05-06T18:06:17.522Z,99.90
2023-05-06T18:09:04.108Z,99.90
2023-05-06T18:11:52.010Z,99.90
2023-05-06T18:14:39.222Z,99.90
2023-05-06T18:17:25.722Z,99.90
2023-05-06T18:20:13.785Z,99.90
2023-05-06T18:23:00.455Z,99.90
2023-05-06T18:25:46.951Z,99.90
2023-05-06T18:28:37.577Z,99.90
2023-05-06T18:31:24.653Z,99.90
2023-05-06T18:34:11.008Z,99.90
2023-05-06T18:36:57.959Z,99.90
2023-05-06T18:39:45.406Z,99.90
2023-05-06T18:42:33.321Z,99.90
2023-05-06T18:45:22.300Z,99.90
2023-05-06T18:48:08.874Z,99.90
2023-05-06T18:50:55.191Z,99.90
2023-05-06T18:53:41.889Z,99.90
2023-05-06T18:56:28.316Z,99.90
2023-05-06T18:59:15.205Z,99.90
2023-05-06T19:02:04.137Z,99.90
2023-05-06T19:04:52.003Z,99.90
2023-05-06T19:07:38.427Z,99.90
2023-05-06T19:10:24.925Z,99.90
2023-05-06T19:13:12.206Z,99.90
2023-05-06T19:15:59.166Z,99.90
2023-05-06T19:18:47.778Z,99.90
2023-05-06T19:21:34.394Z,99.90
2023-05-06T19:24:20.964Z,99.90
2023-05-06T19:27:07.360Z,99.90
2023-05-06T19:29:53.862Z,99.90
2023-05-06T19:32:40.519Z,99.90
2023-05-06T19:35:29.221Z,99.90
2023-05-06T19:38:15.907Z,99.90
2023-05-06T19:41:02.755Z,99.90
2023-05-06T19:43:49.486Z,99.90
2023-05-06T19:46:36.130Z,99.90
2023-05-06T19:49:23.251Z,99.90
2023-05-06T19:52:11.531Z,99.90
2023-05-06T19:54:58.265Z,99.90
2023-05-06T19:57:44.874Z,99.90
2023-05-06T20:00:31.626Z,99.90
2023-05-06T20:03:18.047Z,99.90
2023-05-06T20:06:04.999Z,99.90
2023-05-06T20:08:52.877Z,99.90
2023-05-06T20:11:39.976Z,99.90
2023-05-06T20:14:26.843Z,99.90
2023-05-06T20:17:13.273Z,99.90
2023-05-06T20:20:00.840Z,99.90
2023-05-06T20:22:48.514Z,99.90
2023-05-06T20:25:37.329Z,99.90
2023-05-06T20:28:24.372Z,99.90
2023-05-06T20:31:10.915Z,99.90
2023-05-06T20:33:57.292Z,99.90
2023-05-06T20:36:44.373Z,99.90
2023-05-06T20:39:30.853Z,99.90
2023-05-06T20:42:18.678Z,99.90
2023-05-06T20:45:06.513Z,99.90
2023-05-06T20:47:53.064Z,99.90
2023-05-06T20:50:39.923Z,99.90
2023-05-06T20:53:27.334Z,99.90
2023-05-06T20:56:19.198Z,99.90
2023-05-06T20:59:06.990Z,99.90
2023-05-06T21:01:53.596Z,99.90
2023-05-06T21:04:40.043Z,99.90
2023-05-06T21:07:26.418Z,99.90
2023-05-06T21:10:12.810Z,99.90
2023-05-06T21:12:59.244Z,99.90
2023-05-06T21:15:47.310Z,99.90
2023-05-06T21:18:33.810Z,99.90
2023-05-06T21:21:20.645Z,99.90
2023-05-06T21:24:07.349Z,99.90
2023-05-06T21:26:53.817Z,99.90
2023-05-06T21:29:40.139Z,99.90
2023-05-06T21:32:32.805Z,99.90
2023-05-06T21:35:19.303Z,99.90
2023-05-06T21:38:05.701Z,99.90
2023-05-06T21:40:52.457Z,99.90
2023-05-06T21:43:38.998Z,99.90
2023-05-06T21:46:25.687Z,99.90
2023-05-06T21:49:13.697Z,99.90
2023-05-06T21:52:00.529Z,99.90
2023-05-06T21:54:47.237Z,99.90
2023-05-06T21:57:33.822Z,99.90
2023-05-06T22:00:20.554Z,99.90
2023-05-06T22:03:07.338Z,99.90
2023-05-06T22:05:55.405Z,99.90
2023-05-06T22:08:42.924Z,99.90
2023-05-06T22:11:29.451Z,99.90
2023-05-06T22:14:16.154Z,99.90
2023-05-06T22:17:04.262Z,99.90
2023-05-06T22:19:51.561Z,99.90
2023-05-06T22:22:40.195Z,99.90
2023-05-06T22:25:27.008Z,99.90
2023-05-06T22:28:13.690Z,99.90
2023-05-06T22:31:00.117Z,99.90
2023-05-06T22:33:47.588Z,99.90
2023-05-06T22:36:34.051Z,99.90
2023-05-06T22:39:21.961Z,99.90
2023-05-06T22:42:09.347Z,99.90
2023-05-06T22:44:55.752Z,99.90
2023-05-06T22:47:42.330Z,99.90
2023-05-06T22:50:29.252Z,99.90
2023-05-06T22:53:15.847Z,99.90
2023-05-06T22:56:03.833Z,99.90
2023-05-06T22:58:50.684Z,99.90
2023-05-06T23:01:37.106Z,99.90
2023-05-06T23:04:23.583Z,99.90
2023-05-06T23:07:10.638Z,99.90
2023-05-06T23:09:59.041Z,99.90
2023-05-06T23:12:46.850Z,99.90
2023-05-06T23:15:33.361Z,99.90
2023-05-06T23:18:20.640Z,99.90
2023-05-06T23:21:07.534Z,99.90
2023-05-06T23:23:53.928Z,99.90
2023-05-06T23:26:40.261Z,99.90
2023-05-06T23:29:27.899Z,99.90
2023-05-06T23:32:14.252Z,99.90
2023-05-06T23:35:00.757Z,99.90
2023-05-06T23:37:47.055Z,99.90
2023-05-06T23:40:33.534Z,99.90
2023-05-06T23:43:19.853Z,99.90
2023-05-06T23:46:07.680Z,99.90
2023-05-06T23:48:54.243Z,99.90
2023-05-06T23:51:40.665Z,99.90
2023-05-06T23:54:27.051Z,99.90
2023-05-06T23:57:13.503Z,99.90
2023-05-06T23:59:59.906Z,99.90
